createdAt,value
2023-01-18T00:00:37.755Z,4.35
2023-01-18T00:03:08.740Z,4.43
2023-01-18T00:05:41.116Z,4.25
2023-01-18T00:08:09.186Z,4.53
2023-01-18T00:10:37.226Z,3.95
2023-01-18T00:13:06.100Z,3.83
2023-01-18T00:15:34.792Z,4.20
2023-01-18T00:18:05.429Z,4.00
2023-01-18T00:20:33.970Z,3.70
2023-01-18T00:23:03.871Z,3.80
2023-01-18T00:25:32.007Z,3.88
2023-01-18T00:27:59.991Z,4.55
2023-01-18T00:30:29.784Z,4.32
2023-01-18T00:32:59.908Z,4.05
2023-01-18T00:35:28.400Z,4.55
2023-01-18T00:37:56.372Z,4.38
2023-01-18T00:40:30.240Z,3.92
2023-01-18T00:43:15.724Z,4.25
2023-01-18T00:45:44.065Z,4.30
2023-01-18T00:48:12.028Z,3.70
2023-01-18T00:50:40.140Z,4.55
2023-01-18T00:53:08.239Z,4.22
2023-01-18T00:55:37.760Z,4.05
2023-01-18T00:58:05.746Z,4.50
2023-01-18T01:00:33.978Z,4.47
2023-01-18T01:03:02.254Z,4.20
2023-01-18T01:05:48.207Z,4.75
2023-01-18T01:08:17.932Z,4.00
2023-01-18T01:10:49.605Z,4.30
2023-01-18T01:13:37.465Z,4.05
2023-01-18T01:16:24.353Z,3.88
2023-01-18T01:19:12.511Z,4.28
2023-01-18T01:21:59.225Z,4.20
2023-01-18T01:24:45.619Z,4.28
2023-01-18T01:27:15.409Z,4.05
2023-01-18T01:29:43.525Z,4.03
2023-01-18T01:32:12.049Z,4.18
2023-01-18T01:34:40.234Z,3.92
2023-01-18T01:37:08.218Z,4.00
2023-01-18T01:39:36.234Z,4.43
2023-01-18T01:42:04.449Z,3.70
2023-01-18T01:44:52.119Z,3.63
2023-01-18T01:47:35.924Z,4.50
2023-01-18T01:50:11.863Z,3.97
2023-01-18T01:52:43.200Z,3.97
2023-01-18T01:55:17.175Z,4.33
2023-01-18T01:57:49.612Z,3.80
2023-01-18T02:00:21.204Z,3.80
2023-01-18T02:02:53.309Z,3.75
2023-01-18T02:05:24.015Z,4.38
2023-01-18T02:07:52.663Z,3.75
2023-01-18T02:10:22.965Z,3.67
2023-01-18T02:12:53.702Z,3.35
2023-01-18T02:15:28.213Z,3.90
2023-01-18T02:18:10.811Z,3.65
2023-01-18T02:21:11.439Z,3.95
2023-01-18T02:24:09.938Z,3.88
2023-01-18T02:27:00.563Z,4.28
2023-01-18T02:30:17.323Z,3.60
2023-01-18T02:32:58.196Z,3.95
2023-01-18T02:35:39.414Z,3.85
2023-01-18T02:38:12.507Z,3.80
2023-01-18T02:40:55.208Z,4.38
2023-01-18T02:43:43.366Z,4.10
2023-01-18T02:46:34.871Z,4.50
2023-01-18T02:49:06.858Z,3.92
2023-01-18T02:51:35.128Z,3.65
2023-01-18T02:54:04.220Z,3.92
2023-01-18T02:56:39.328Z,4.05
2023-01-18T02:59:14.059Z,3.75
2023-01-18T03:01:48.520Z,3.58
2023-01-18T03:04:22.567Z,3.55
2023-01-18T03:06:57.400Z,3.80
2023-01-18T03:09:27.422Z,3.78
2023-01-18T03:12:03.417Z,3.70
2023-01-18T03:14:42.153Z,3.30
2023-01-18T03:17:21.281Z,4.07
2023-01-18T03:20:09.395Z,4.13
2023-01-18T03:22:57.343Z,3.50
2023-01-18T03:25:29.510Z,4.05
2023-01-18T03:28:18.619Z,4.38
2023-01-18T03:31:05.222Z,3.28
2023-01-18T03:33:46.194Z,3.40
2023-01-18T03:36:20.640Z,3.63
2023-01-18T03:38:53.471Z,3.55
2023-01-18T03:41:24.333Z,3.33
2023-01-18T03:43:55.823Z,3.70
2023-01-18T03:46:26.471Z,3.35
2023-01-18T03:48:56.452Z,3.35
2023-01-18T03:51:30.955Z,3.70
2023-01-18T03:54:07.857Z,3.50
2023-01-18T03:56:43.430Z,3.38
2023-01-18T03:59:11.662Z,3.45
2023-01-18T04:01:40.134Z,3.33
2023-01-18T04:04:09.509Z,3.38
2023-01-18T04:06:39.837Z,3.42
2023-01-18T04:09:08.676Z,3.10
2023-01-18T04:11:36.666Z,3.20
2023-01-18T04:14:04.673Z,3.50
2023-01-18T04:16:33.067Z,3.70
2023-01-18T04:19:01.078Z,3.40
2023-01-18T04:21:30.470Z,3.20
2023-01-18T04:23:58.432Z,3.35
2023-01-18T04:26:30.008Z,3.30
2023-01-18T04:28:57.964Z,3.28
2023-01-18T04:31:25.988Z,3.50
2023-01-18T04:33:54.044Z,3.25
2023-01-18T04:36:22.673Z,3.80
2023-01-18T04:38:55.379Z,3.53
2023-01-18T04:41:23.661Z,3.45
2023-01-18T04:43:51.550Z,3.40
2023-01-18T04:46:19.830Z,3.65
2023-01-18T04:48:51.403Z,2.92
2023-01-18T04:51:20.281Z,3.35
2023-01-18T04:53:50.607Z,3.20
2023-01-18T04:56:20.669Z,3.25
2023-01-18T04:58:48.599Z,3.13
2023-01-18T05:01:17.218Z,3.00
2023-01-18T05:03:45.521Z,3.40
2023-01-18T05:06:19.917Z,3.58
2023-01-18T05:11:18.267Z,3.30
2023-01-18T05:13:48.058Z,3.20
2023-01-18T05:16:18.358Z,2.60
2023-01-18T05:18:46.811Z,3.10
2023-01-18T05:21:15.697Z,3.03
2023-01-18T05:23:43.957Z,3.30
2023-01-18T05:26:16.632Z,3.35
2023-01-18T05:28:44.741Z,3.00
2023-01-18T05:31:14.761Z,3.28
2023-01-18T05:33:43.379Z,3.25
2023-01-18T05:36:14.101Z,3.33
2023-01-18T05:38:42.176Z,3.55
2023-01-18T05:41:10.172Z,3.30
2023-01-18T05:43:38.716Z,3.13
2023-01-18T05:46:07.242Z,3.28
2023-01-18T05:48:36.692Z,3.00
2023-01-18T05:51:08.571Z,2.95
2023-01-18T05:53:36.965Z,3.20
2023-01-18T05:56:09.598Z,3.22
2023-01-18T05:58:38.434Z,3.70
2023-01-18T06:01:07.733Z,3.28
2023-01-18T06:03:37.449Z,3.42
2023-01-18T06:06:05.503Z,3.35
2023-01-18T06:08:33.988Z,3.10
2023-01-18T06:11:02.182Z,3.15
2023-01-18T06:13:32.828Z,3.20
2023-01-18T06:16:02.132Z,2.92
2023-01-18T06:18:32.882Z,2.90
2023-01-18T06:21:05.178Z,2.85
2023-01-18T06:26:01.122Z,2.83
2023-01-18T06:28:30.665Z,2.95
2023-01-18T06:30:59.074Z,3.20
2023-01-18T06:33:27.059Z,2.95
2023-01-18T06:35:56.860Z,3.80
2023-01-18T06:38:26.673Z,2.80
2023-01-18T06:40:54.701Z,3.22
2023-01-18T06:43:22.962Z,3.10
2023-01-18T06:45:55.191Z,3.22
2023-01-18T06:50:53.459Z,3.13
2023-01-18T06:53:21.700Z,2.95
2023-01-18T06:55:58.583Z,2.90
2023-01-18T06:58:27.911Z,3.10
2023-01-18T07:00:57.104Z,2.95
2023-01-18T07:03:27.360Z,3.05
2023-01-18T07:05:55.665Z,3.03
2023-01-18T07:08:24.405Z,3.35
2023-01-18T07:10:53.670Z,3.03
2023-01-18T07:13:25.652Z,3.63
2023-01-18T07:15:56.600Z,3.05
2023-01-18T07:18:25.168Z,2.85
2023-01-18T07:21:00.550Z,3.08
2023-01-18T07:23:29.065Z,2.95
2023-01-18T07:26:03.427Z,3.00
2023-01-18T07:28:34.744Z,3.40
2023-01-18T07:31:04.038Z,3.10
2023-01-18T07:33:32.031Z,3.70
2023-01-18T07:36:00.372Z,3.13
2023-01-18T07:38:28.776Z,3.60
2023-01-18T07:41:02.594Z,3.10
2023-01-18T07:43:32.965Z,3.00
2023-01-18T07:46:04.127Z,3.20
2023-01-18T07:48:32.834Z,3.25
2023-01-18T07:51:02.373Z,3.22
2023-01-18T07:53:31.358Z,3.20
2023-01-18T07:56:00.968Z,3.50
2023-01-18T07:58:29.863Z,3.15
2023-01-18T08:01:03.430Z,3.35
2023-01-18T08:03:31.607Z,3.28
2023-01-18T08:06:00.241Z,3.72
2023-01-18T08:08:29.055Z,3.70
2023-01-18T08:10:57.874Z,3.45
2023-01-18T08:13:27.036Z,3.25
2023-01-18T08:15:55.528Z,3.50
2023-01-18T08:18:26.165Z,3.35
2023-01-18T08:20:55.220Z,3.03
2023-01-18T08:23:23.476Z,3.28
2023-01-18T08:25:51.565Z,3.20
2023-01-18T08:28:19.931Z,3.42
2023-01-18T08:30:49.383Z,3.20
2023-01-18T08:33:17.751Z,3.30
2023-01-18T08:35:49.042Z,3.30
2023-01-18T08:38:17.937Z,3.57
2023-01-18T08:40:48.244Z,3.42
2023-01-18T08:43:16.226Z,3.10
2023-01-18T08:45:44.188Z,3.38
2023-01-18T08:48:12.574Z,3.40
2023-01-18T08:50:40.527Z,4.30
2023-01-18T08:53:10.164Z,3.75
2023-01-18T08:55:38.386Z,4.20
2023-01-18T08:58:06.356Z,3.88
2023-01-18T09:00:34.436Z,3.55
2023-01-18T09:03:03.359Z,3.35
2023-01-18T09:05:31.558Z,4.00
2023-01-18T09:07:59.843Z,3.65
2023-01-18T09:10:32.783Z,3.67
2023-01-18T09:13:01.039Z,3.58
2023-01-18T09:15:31.251Z,3.97
2023-01-18T09:18:05.048Z,4.63
2023-01-18T09:20:36.747Z,4.47
2023-01-18T09:23:06.050Z,4.10
2023-01-18T09:25:36.491Z,4.25
2023-01-18T09:28:06.017Z,4.00
2023-01-18T09:30:35.842Z,4.00
2023-01-18T09:33:03.900Z,3.90
2023-01-18T09:35:33.099Z,3.80
2023-01-18T09:38:01.172Z,4.03
2023-01-18T09:40:43.981Z,3.72
2023-01-18T09:43:17.966Z,3.85
2023-01-18T09:45:48.438Z,3.67
2023-01-18T09:48:28.035Z,4.20
2023-01-18T09:50:59.408Z,4.10
2023-01-18T09:53:47.836Z,3.97
2023-01-18T09:56:23.186Z,3.85
2023-01-18T09:59:02.326Z,3.65
2023-01-18T10:01:34.962Z,3.72
2023-01-18T10:04:08.945Z,3.65
2023-01-18T10:06:45.283Z,3.60
2023-01-18T10:09:15.970Z,3.88
2023-01-18T10:11:55.057Z,3.80
2023-01-18T10:14:35.765Z,3.40
2023-01-18T10:17:10.215Z,4.00
2023-01-18T10:19:38.231Z,3.45
2023-01-18T10:22:09.661Z,3.70
2023-01-18T10:24:51.568Z,3.70
2023-01-18T10:27:35.980Z,3.80
2023-01-18T10:30:34.420Z,3.38
2023-01-18T10:33:06.742Z,3.35
2023-01-18T10:35:37.880Z,3.45
2023-01-18T10:38:09.748Z,3.67
2023-01-18T10:40:40.487Z,3.55
2023-01-18T10:43:15.553Z,3.90
2023-01-18T10:45:45.954Z,3.80
2023-01-18T10:48:28.106Z,3.53
2023-01-18T10:51:00.815Z,3.55
2023-01-18T10:53:32.208Z,3.22
2023-01-18T10:56:06.202Z,3.33
2023-01-18T10:58:45.063Z,3.70
2023-01-18T11:01:17.493Z,3.58
2023-01-18T11:03:48.751Z,3.63
2023-01-18T11:06:17.427Z,3.50
2023-01-18T11:08:45.791Z,3.20
2023-01-18T11:11:20.481Z,3.20
2023-01-18T11:13:51.318Z,3.40
2023-01-18T11:16:21.524Z,3.30
2023-01-18T11:18:57.964Z,3.05
2023-01-18T11:21:30.830Z,3.20
2023-01-18T11:23:59.300Z,3.50
2023-01-18T11:26:29.582Z,3.28
2023-01-18T11:29:02.423Z,3.50
2023-01-18T11:31:32.547Z,3.72
2023-01-18T11:34:03.523Z,3.35
2023-01-18T11:36:37.659Z,3.35
2023-01-18T11:39:29.518Z,3.35
2023-01-18T11:42:19.992Z,2.97
2023-01-18T11:45:05.556Z,3.30
2023-01-18T11:47:45.004Z,3.17
2023-01-18T11:50:25.036Z,3.40
2023-01-18T11:52:58.007Z,3.30
2023-01-18T11:55:33.444Z,2.92
2023-01-18T11:58:02.023Z,2.80
2023-01-18T12:00:39.163Z,3.38
2023-01-18T12:03:40.883Z,3.00
2023-01-18T12:06:19.050Z,2.92
2023-01-18T12:09:00.352Z,3.28
2023-01-18T12:12:17.685Z,3.40
2023-01-18T12:15:00.329Z,3.40
2023-01-18T12:17:46.228Z,3.30
2023-01-18T12:20:25.473Z,2.83
2023-01-18T12:23:17.549Z,2.90
2023-01-18T12:26:12.842Z,2.95
2023-01-18T12:28:58.954Z,2.90
2023-01-18T12:31:45.336Z,3.15
2023-01-18T12:34:18.634Z,3.05
2023-01-18T12:37:04.053Z,2.83
2023-01-18T12:39:49.977Z,3.45
2023-01-18T12:42:26.384Z,2.92
2023-01-18T12:45:15.833Z,3.10
2023-01-18T12:47:49.167Z,3.42
2023-01-18T12:50:24.914Z,2.88
2023-01-18T12:52:57.347Z,3.22
2023-01-18T12:55:27.007Z,3.08
2023-01-18T12:57:59.014Z,2.85
2023-01-18T13:03:10.875Z,2.95
2023-01-18T13:05:52.397Z,3.10
2023-01-18T13:08:30.966Z,3.13
2023-01-18T13:11:07.812Z,2.70
2023-01-18T13:13:37.051Z,2.90
2023-01-18T13:16:15.245Z,2.70
2023-01-18T13:18:51.104Z,3.15
2023-01-18T13:21:30.054Z,3.03
2023-01-18T13:24:09.765Z,2.60
2023-01-18T13:26:38.076Z,3.00
2023-01-18T13:29:17.805Z,2.72
2023-01-18T13:31:46.250Z,2.92
2023-01-18T13:34:28.665Z,2.90
2023-01-18T13:37:13.534Z,2.50
2023-01-18T13:39:46.606Z,2.85
2023-01-18T13:42:38.100Z,2.88
2023-01-18T13:45:19.126Z,2.78
2023-01-18T13:47:53.319Z,2.63
2023-01-18T13:50:42.328Z,2.42
2023-01-18T13:53:47.760Z,2.88
2023-01-18T13:56:28.686Z,2.78
2023-01-18T13:58:59.875Z,2.67
2023-01-18T14:01:34.197Z,2.72
2023-01-18T14:04:22.379Z,3.38
2023-01-18T14:06:51.919Z,3.40
2023-01-18T14:09:34.149Z,2.90
2023-01-18T14:12:02.366Z,2.58
2023-01-18T14:14:32.877Z,3.35
2023-01-18T14:17:07.127Z,2.97
2023-01-18T14:19:57.481Z,2.80
2023-01-18T14:22:41.576Z,2.90
2023-01-18T14:25:26.531Z,2.50
2023-01-18T14:28:04.242Z,2.60
2023-01-18T14:30:35.716Z,2.50
2023-01-18T14:33:10.588Z,2.38
2023-01-18T14:35:38.979Z,3.25
2023-01-18T14:38:17.557Z,2.38
2023-01-18T14:40:50.215Z,2.60
2023-01-18T14:45:57.749Z,2.88
2023-01-18T14:48:26.470Z,2.40
2023-01-18T14:50:56.341Z,2.47
2023-01-18T14:53:26.897Z,2.65
2023-01-18T14:56:21.884Z,2.22
2023-01-18T14:58:55.033Z,2.30
2023-01-18T15:01:32.487Z,2.03
2023-01-18T15:04:02.440Z,1.95
2023-01-18T15:06:39.725Z,2.50
2023-01-18T15:09:10.718Z,2.40
2023-01-18T15:11:42.464Z,2.03
2023-01-18T15:14:17.743Z,2.40
2023-01-18T15:16:47.073Z,2.22
2023-01-18T15:19:19.040Z,2.22
2023-01-18T15:21:47.502Z,2.22
2023-01-18T15:24:18.648Z,2.25
2023-01-18T15:26:52.690Z,2.25
2023-01-18T15:29:25.983Z,2.08
2023-01-18T15:31:56.146Z,2.60
2023-01-18T15:34:29.825Z,2.30
2023-01-18T15:37:00.576Z,2.03
2023-01-18T15:39:28.877Z,2.40
2023-01-18T15:41:58.548Z,2.13
2023-01-18T15:44:46.848Z,2.40
2023-01-18T15:47:17.108Z,2.20
2023-01-18T15:49:48.825Z,2.30
2023-01-18T15:52:17.634Z,2.15
2023-01-18T15:54:50.535Z,2.40
2023-01-18T15:57:21.212Z,2.30
2023-01-18T15:59:49.352Z,2.40
2023-01-18T16:02:20.165Z,2.17
2023-01-18T16:04:48.598Z,2.20
2023-01-18T16:07:37.104Z,2.00
2023-01-18T16:10:32.256Z,2.20
2023-01-18T16:13:30.887Z,2.00
2023-01-18T16:16:14.436Z,2.10
2023-01-18T16:18:45.001Z,2.22
2023-01-18T16:21:19.220Z,2.15
2023-01-18T16:23:50.294Z,2.03
2023-01-18T16:26:23.143Z,1.60
2023-01-18T16:28:54.093Z,1.95
2023-01-18T16:31:23.790Z,2.17
2023-01-18T16:33:51.725Z,2.05
2023-01-18T16:36:20.813Z,2.17
2023-01-18T16:38:48.776Z,1.95
2023-01-18T16:41:17.027Z,1.88
2023-01-18T16:43:45.148Z,2.40
2023-01-18T16:46:14.660Z,2.33
2023-01-18T16:48:42.780Z,1.85
2023-01-18T16:51:17.080Z,1.90
2023-01-18T16:53:45.135Z,2.10
2023-01-18T16:56:16.304Z,2.17
2023-01-18T16:58:44.309Z,2.20
2023-01-18T17:01:15.948Z,2.13
2023-01-18T17:03:44.714Z,2.10
2023-01-18T17:06:18.128Z,2.05
2023-01-18T17:08:47.616Z,2.05
2023-01-18T17:11:15.867Z,2.17
2023-01-18T17:13:44.920Z,2.15
2023-01-18T17:16:18.600Z,2.17
2023-01-18T17:18:48.020Z,2.22
2023-01-18T17:21:15.968Z,1.98
2023-01-18T17:23:45.061Z,2.13
2023-01-18T17:26:15.151Z,2.28
2023-01-18T17:28:43.282Z,2.08
2023-01-18T17:31:11.364Z,1.90
2023-01-18T17:33:40.772Z,2.08
2023-01-18T17:36:09.815Z,2.28
2023-01-18T17:38:37.812Z,2.33
2023-01-18T17:41:09.474Z,1.90
2023-01-18T17:43:37.630Z,2.10
2023-01-18T17:46:06.687Z,1.90
2023-01-18T17:48:35.075Z,2.17
2023-01-18T17:51:06.319Z,2.30
2023-01-18T17:53:34.353Z,2.50
2023-01-18T17:56:02.458Z,2.30
2023-01-18T17:58:30.518Z,2.30
2023-01-18T18:01:04.942Z,2.60
2023-01-18T18:03:33.155Z,2.60
2023-01-18T18:06:02.270Z,2.50
2023-01-18T18:08:31.677Z,2.10
2023-01-18T18:11:02.493Z,2.40
2023-01-18T18:13:31.165Z,2.25
2023-01-18T18:15:59.220Z,2.97
2023-01-18T18:18:29.341Z,2.70
2023-01-18T18:20:58.694Z,2.28
2023-01-18T18:23:27.525Z,1.95
2023-01-18T18:25:58.221Z,2.50
2023-01-18T18:28:29.546Z,2.50
2023-01-18T18:30:58.920Z,2.33
2023-01-18T18:33:27.995Z,2.08
2023-01-18T18:35:56.193Z,2.47
2023-01-18T18:38:26.583Z,2.30
2023-01-18T18:40:56.274Z,2.30
2023-01-18T18:43:24.982Z,2.20
2023-01-18T18:45:52.994Z,2.35
2023-01-18T18:48:21.025Z,2.33
2023-01-18T18:50:49.094Z,2.35
2023-01-18T18:53:19.585Z,2.75
2023-01-18T18:55:49.425Z,2.70
2023-01-18T18:58:22.149Z,2.85
2023-01-18T19:00:50.331Z,2.67
2023-01-18T19:03:21.325Z,2.47
2023-01-18T19:05:49.455Z,2.45
2023-01-18T19:08:17.449Z,2.30
2023-01-18T19:10:45.967Z,2.30
2023-01-18T19:13:14.086Z,2.20
2023-01-18T19:15:47.857Z,2.60
2023-01-18T19:18:16.839Z,2.15
2023-01-18T19:20:44.846Z,2.47
2023-01-18T19:23:14.477Z,2.15
2023-01-18T19:25:42.469Z,2.45
2023-01-18T19:28:10.783Z,2.47
2023-01-18T19:30:41.532Z,2.50
2023-01-18T19:33:11.276Z,2.78
2023-01-18T19:35:40.950Z,2.60
2023-01-18T19:38:09.656Z,2.58
2023-01-18T19:40:38.201Z,2.60
2023-01-18T19:43:06.412Z,2.50
2023-01-18T19:45:36.126Z,2.60
2023-01-18T19:48:05.147Z,2.60
2023-01-18T19:50:34.523Z,2.70
2023-01-18T19:53:03.664Z,2.47
2023-01-18T19:55:31.825Z,2.50
2023-01-18T19:58:01.608Z,2.38
2023-01-18T20:00:30.346Z,2.60
2023-01-18T20:02:59.774Z,2.47
2023-01-18T20:05:28.397Z,2.75
2023-01-18T20:07:57.786Z,2.35
2023-01-18T20:10:28.368Z,2.30
2023-01-18T20:12:56.348Z,2.85
2023-01-18T20:15:24.329Z,2.58
2023-01-18T20:17:52.436Z,2.45
2023-01-18T20:20:31.245Z,2.45
2023-01-18T20:23:04.137Z,2.55
2023-01-18T20:28:00.687Z,2.38
2023-01-18T20:30:28.913Z,2.45
2023-01-18T20:32:56.850Z,2.60
2023-01-18T20:35:24.910Z,2.75
2023-01-18T20:37:56.885Z,2.35
2023-01-18T20:42:56.559Z,2.60
2023-01-18T20:45:24.544Z,2.63
2023-01-18T20:47:52.607Z,2.50
2023-01-18T20:50:24.206Z,2.85
2023-01-18T20:52:53.707Z,2.72
2023-01-18T20:55:22.272Z,2.55
2023-01-18T20:57:52.684Z,2.60
2023-01-18T21:00:21.482Z,2.15
2023-01-18T21:02:49.738Z,2.50
2023-01-18T21:05:18.133Z,2.38
2023-01-18T21:07:46.087Z,2.75
2023-01-18T21:10:14.122Z,2.55
2023-01-18T21:12:42.124Z,2.28
2023-01-18T21:15:15.283Z,2.63
2023-01-18T21:17:43.384Z,2.58
2023-01-18T21:20:12.680Z,2.63
2023-01-18T21:22:40.711Z,2.75
2023-01-18T21:25:11.105Z,2.45
2023-01-18T21:27:43.220Z,2.42
2023-01-18T21:30:15.549Z,2.72
2023-01-18T21:32:43.941Z,2.47
2023-01-18T21:35:12.130Z,2.80
2023-01-18T21:37:40.475Z,2.88
2023-01-18T21:40:11.981Z,2.47
2023-01-18T21:42:57.539Z,2.67
2023-01-18T21:45:44.034Z,2.55
2023-01-18T21:48:12.039Z,2.63
2023-01-18T21:50:58.003Z,2.53
2023-01-18T21:53:43.490Z,2.63
2023-01-18T21:56:11.662Z,2.63
2023-01-18T21:58:54.732Z,3.15
2023-01-18T22:01:26.242Z,2.40
2023-01-18T22:04:13.405Z,3.03
2023-01-18T22:06:41.557Z,2.90
2023-01-18T22:09:09.493Z,2.65
2023-01-18T22:11:37.809Z,2.72
2023-01-18T22:14:07.006Z,2.65
2023-01-18T22:16:36.977Z,2.78
2023-01-18T22:19:05.928Z,2.83
2023-01-18T22:21:34.165Z,2.70
2023-01-18T22:24:02.597Z,2.70
2023-01-18T22:26:31.381Z,2.78
2023-01-18T22:28:59.835Z,2.60
2023-01-18T22:31:28.938Z,2.53
2023-01-18T22:33:58.610Z,2.53
2023-01-18T22:36:27.179Z,2.78
2023-01-18T22:38:55.215Z,2.70
2023-01-18T22:41:24.894Z,2.40
2023-01-18T22:43:53.464Z,2.53
2023-01-18T22:46:23.371Z,2.50
2023-01-18T22:48:52.190Z,2.60
2023-01-18T22:51:23.997Z,2.53
2023-01-18T22:53:52.830Z,2.40
2023-01-18T22:56:22.271Z,2.70
2023-01-18T22:58:51.234Z,2.67
2023-01-18T23:01:21.404Z,2.75
2023-01-18T23:03:50.277Z,3.00
2023-01-18T23:06:19.493Z,2.90
2023-01-18T23:08:49.683Z,2.58
2023-01-18T23:11:19.136Z,2.80
2023-01-18T23:14:05.470Z,2.58
2023-01-18T23:16:51.227Z,2.38
2023-01-18T23:19:19.977Z,2.65
2023-01-18T23:21:47.976Z,2.28
2023-01-18T23:24:20.563Z,2.85
2023-01-18T23:26:49.397Z,2.55
2023-01-18T23:29:18.033Z,2.65
2023-01-18T23:31:46.819Z,2.70
2023-01-18T23:34:15.175Z,2.63
2023-01-18T23:36:43.127Z,2.55
2023-01-18T23:39:28.990Z,2.45
2023-01-18T23:42:16.035Z,2.65
2023-01-18T23:45:01.327Z,2.70
2023-01-18T23:47:46.564Z,2.58
2023-01-18T23:50:32.070Z,2.70
2023-01-18T23:53:18.381Z,2.90
2023-01-18T23:55:46.689Z,2.80
2023-01-18T23:58:18.246Z,2.65
